Time;durP1;ratioP1;P1;durP2;ratioP2;P2;SDS_P1;SDS_P2;PMS_P1;PMS_P2;Temp;Humidity;BMP_temperature;BMP_pressure;BME280_temperature;BME280_humidity;BME280_pressure;Samples;Min_cycle;Max_cycle;Signal;HPM_P1;HPM_P2
2023/10/23 00:02:56;;;;;;;17.33;6.93;;;;;;;;;;6338617;28;20151;-66
2023/10/23 00:05:58;;;;;;;17.33;4.78;;;;;;;;;;6338231;28;20051;-66
2023/10/23 00:09:00;;;;;;;16.75;6.60;;;;;;;;;;6338327;28;20031;-66
2023/10/23 00:12:02;;;;;;;22.48;6.22;;;;;;;;;;6337889;28;20086;-66
2023/10/23 00:15:04;;;;;;;20.20;5.55;;;;;;;;;;6337947;27;20554;-65
2023/10/23 00:18:06;;;;;;;17.38;5.53;;;;;;;;;;6338121;28;20126;-65
2023/10/23 00:21:08;;;;;;;20.25;6.95;;;;;;;;;;6338559;28;20051;-66
2023/10/23 00:24:11;;;;;;;18.27;6.35;;;;;;;;;;6331226;28;20073;-66
2023/10/23 00:27:13;;;;;;;23.52;7.55;;;;;;;;;;6337834;28;20048;-65
2023/10/23 00:30:15;;;;;;;21.20;7.00;;;;;;;;;;6337463;28;20072;-65
2023/10/23 00:33:17;;;;;;;23.45;9.15;;;;;;;;;;6319512;28;20048;-64
2023/10/23 00:36:19;;;;;;;19.17;6.38;;;;;;;;;;6335251;28;20522;-66
2023/10/23 00:39:21;;;;;;;23.52;7.43;;;;;;;;;;6336827;28;20066;-65
2023/10/23 00:42:23;;;;;;;19.55;6.13;;;;;;;;;;6336600;28;20180;-66
2023/10/23 00:45:25;;;;;;;23.00;7.63;;;;;;;;;;6335626;28;20084;-65
2023/10/23 00:48:27;;;;;;;17.08;6.38;;;;;;;;;;6335701;28;20123;-66
2023/10/23 00:51:30;;;;;;;22.42;7.03;;;;;;;;;;6337500;28;20051;-65
2023/10/23 00:54:32;;;;;;;28.67;7.63;;;;;;;;;;6321513;28;20048;-65
2023/10/23 00:57:35;;;;;;;21.70;7.45;;;;;;;;;;6330441;28;20096;-65
2023/10/23 01:00:37;;;;;;;22.50;7.05;;;;;;;;;;6314835;28;20067;-65
2023/10/23 01:03:40;;;;;;;22.15;5.93;;;;;;;;;;6321331;28;20051;-65
2023/10/23 01:06:42;;;;;;;20.30;6.55;;;;;;;;;;6320444;28;20054;-65
2023/10/23 01:09:44;;;;;;;18.50;7.50;;;;;;;;;;6325391;28;20048;-64
2023/10/23 01:12:48;;;;;;;15.88;6.22;;;;;;;;;;6335018;28;20054;-67
2023/10/23 01:15:51;;;;;;;15.55;6.35;;;;;;;;;;6327232;28;20125;-66
2023/10/23 01:18:53;;;;;;;21.27;6.45;;;;;;;;;;6321895;28;20127;-65
2023/10/23 01:21:55;;;;;;;21.73;6.70;;;;;;;;;;6336539;28;20058;-65
2023/10/23 01:24:57;;;;;;;21.98;6.75;;;;;;;;;;6336151;28;20128;-66
2023/10/23 01:28:02;;;;;;;25.25;7.55;;;;;;;;;;6320342;28;20051;-65
2023/10/23 01:31:04;;;;;;;15.60;7.20;;;;;;;;;;6330738;28;20070;-65
2023/10/23 01:34:06;;;;;;;18.20;7.38;;;;;;;;;;6322725;28;20040;-65
2023/10/23 01:37:08;;;;;;;30.70;7.10;;;;;;;;;;6336186;28;20062;-65
2023/10/23 01:40:11;;;;;;;22.35;7.05;;;;;;;;;;6336056;28;20040;-63
2023/10/23 01:43:13;;;;;;;30.95;9.88;;;;;;;;;;6334568;28;20050;-64
2023/10/23 01:46:15;;;;;;;23.17;6.75;;;;;;;;;;6334168;28;20054;-66
2023/10/23 01:49:17;;;;;;;20.88;6.32;;;;;;;;;;6333807;28;20148;-65
2023/10/23 01:52:19;;;;;;;22.17;7.13;;;;;;;;;;6331081;28;20060;-65
2023/10/23 01:55:21;;;;;;;18.45;6.28;;;;;;;;;;6336000;28;20756;-65
2023/10/23 01:58:24;;;;;;;20.10;7.25;;;;;;;;;;6328879;28;20178;-66
2023/10/23 02:01:26;;;;;;;24.85;7.07;;;;;;;;;;6317420;28;20055;-66
2023/10/23 02:04:28;;;;;;;13.07;5.35;;;;;;;;;;6310911;28;20052;-66
2023/10/23 02:07:31;;;;;;;13.23;6.70;;;;;;;;;;6319537;28;20052;-65
2023/10/23 02:10:32;;;;;;;33.75;8.52;;;;;;;;;;6317035;28;20055;-66
2023/10/23 02:13:36;;;;;;;28.80;8.50;;;;;;;;;;6335177;28;20561;-66
2023/10/23 02:16:38;;;;;;;22.40;7.15;;;;;;;;;;6318615;28;20488;-65
2023/10/23 02:19:40;;;;;;;18.30;6.28;;;;;;;;;;6320954;28;20408;-65
2023/10/23 02:22:42;;;;;;;20.50;6.90;;;;;;;;;;6318705;28;20051;-65
2023/10/23 02:25:44;;;;;;;22.52;5.90;;;;;;;;;;6335146;28;20051;-65
2023/10/23 02:28:46;;;;;;;20.80;5.82;;;;;;;;;;6335881;28;20048;-65
2023/10/23 02:31:49;;;;;;;15.98;6.43;;;;;;;;;;6333509;28;20104;-65
2023/10/23 02:34:51;;;;;;;15.85;5.40;;;;;;;;;;6331108;28;20088;-65
2023/10/23 02:37:53;;;;;;;19.10;7.22;;;;;;;;;;6321747;28;20047;-65
2023/10/23 02:40:55;;;;;;;17.90;6.10;;;;;;;;;;6328358;28;20051;-64
2023/10/23 02:43:57;;;;;;;12.43;5.18;;;;;;;;;;6334922;28;20040;-65
2023/10/23 02:46:59;;;;;;;18.02;5.72;;;;;;;;;;6334911;28;20102;-65
2023/10/23 02:50:02;;;;;;;22.13;5.50;;;;;;;;;;6334706;28;20123;-64
2023/10/23 02:53:08;;;;;;;20.67;7.03;;;;;;;;;;6318302;28;20050;-65
2023/10/23 02:56:13;;;;;;;19.65;6.53;;;;;;;;;;6337091;28;20664;-64
2023/10/23 02:59:15;;;;;;;16.95;6.38;;;;;;;;;;6339804;28;20039;-64
2023/10/23 03:02:18;;;;;;;20.35;6.32;;;;;;;;;;6340067;28;20051;-64
2023/10/23 03:05:21;;;;;;;16.23;5.38;;;;;;;;;;6338312;28;20051;-64
2023/10/23 03:08:23;;;;;;;17.35;6.85;;;;;;;;;;6325164;28;20442;-64
2023/10/23 03:11:25;;;;;;;19.55;6.05;;;;;;;;;;6307620;28;20165;-65
2023/10/23 03:14:27;;;;;;;21.08;7.72;;;;;;;;;;6339562;28;20714;-65
2023/10/23 03:17:30;;;;;;;19.60;6.35;;;;;;;;;;6339819;27;20743;-64
2023/10/23 03:20:34;;;;;;;25.25;8.00;;;;;;;;;;6338276;28;20039;-65
2023/10/23 03:23:36;;;;;;;18.35;8.63;;;;;;;;;;6320873;28;20696;-65
2023/10/23 03:26:38;;;;;;;26.02;7.03;;;;;;;;;;6325960;28;20128;-65
2023/10/23 03:29:44;;;;;;;17.92;7.90;;;;;;;;;;6339309;28;20144;-64
2023/10/23 03:32:46;;;;;;;;;;;;;;;;;;6340107;28;20043;-64
2023/10/23 03:35:48;;;;;;;21.52;7.30;;;;;;;;;;6327309;28;19923;-64
2023/10/23 03:38:50;;;;;;;21.58;5.80;;;;;;;;;;6338463;28;20044;-63
2023/10/23 03:41:53;;;;;;;28.83;9.45;;;;;;;;;;6338808;28;20094;-64
2023/10/23 03:44:55;;;;;;;19.40;7.65;;;;;;;;;;6324484;28;20044;-65
2023/10/23 03:47:57;;;;;;;21.63;7.32;;;;;;;;;;6338630;28;20052;-65
2023/10/23 03:51:00;;;;;;;22.55;6.80;;;;;;;;;;6338428;28;20036;-64
2023/10/23 03:54:02;;;;;;;27.58;8.45;;;;;;;;;;6332199;28;20056;-63
2023/10/23 03:57:04;;;;;;;17.85;8.32;;;;;;;;;;6338399;28;20701;-64
2023/10/23 04:00:07;;;;;;;21.63;6.82;;;;;;;;;;6337701;28;20043;-65
2023/10/23 04:03:13;;;;;;;20.10;6.68;;;;;;;;;;6337615;28;20047;-64
2023/10/23 04:06:15;;;;;;;16.75;6.68;;;;;;;;;;6320241;28;20508;-65
2023/10/23 04:09:17;;;;;;;16.85;6.63;;;;;;;;;;6337104;28;20124;-65
2023/10/23 04:12:19;;;;;;;16.23;6.13;;;;;;;;;;6335894;28;20071;-64
2023/10/23 04:15:21;;;;;;;19.50;7.38;;;;;;;;;;6336165;28;20075;-64
2023/10/23 04:18:26;;;;;;;25.50;6.88;;;;;;;;;;6335173;28;20818;-64
2023/10/23 04:21:28;;;;;;;23.27;7.32;;;;;;;;;;6323621;28;20051;-65
2023/10/23 04:24:30;;;;;;;15.38;6.35;;;;;;;;;;6327684;28;20046;-64
2023/10/23 04:27:32;;;;;;;15.07;6.53;;;;;;;;;;6334827;28;20121;-65
2023/10/23 04:30:35;;;;;;;15.00;7.82;;;;;;;;;;6337414;28;20594;-65
2023/10/23 04:33:37;;;;;;;20.55;8.18;;;;;;;;;;6337772;28;20514;-65
2023/10/23 04:36:39;;;;;;;15.02;8.80;;;;;;;;;;6323164;28;20883;-65
2023/10/23 04:39:41;;;;;;;17.05;7.65;;;;;;;;;;6325642;28;20059;-66
2023/10/23 04:42:44;;;;;;;19.33;7.68;;;;;;;;;;6329061;28;20044;-64
2023/10/23 04:45:46;;;;;;;20.00;6.88;;;;;;;;;;6333591;28;20051;-64
2023/10/23 04:48:48;;;;;;;18.60;7.45;;;;;;;;;;6328950;28;20065;-67
2023/10/23 04:51:50;;;;;;;21.00;8.27;;;;;;;;;;6327189;28;20040;-65
2023/10/23 04:54:52;;;;;;;21.02;8.02;;;;;;;;;;6332268;28;20112;-65
2023/10/23 04:57:54;;;;;;;19.27;7.45;;;;;;;;;;6329325;28;20059;-64
2023/10/23 05:00:56;;;;;;;22.40;7.45;;;;;;;;;;6337422;28;20047;-63
2023/10/23 05:03:58;;;;;;;18.13;5.95;;;;;;;;;;6330845;28;20055;-64
2023/10/23 05:07:01;;;;;;;26.73;7.28;;;;;;;;;;6334762;28;20097;-65
2023/10/23 05:10:04;;;;;;;22.35;6.22;;;;;;;;;;6333843;28;20039;-65
2023/10/23 05:13:06;;;;;;;14.20;7.70;;;;;;;;;;6331637;28;20139;-65
2023/10/23 05:16:08;;;;;;;26.02;6.88;;;;;;;;;;6333847;28;20036;-65
2023/10/23 05:19:10;;;;;;;24.17;9.38;;;;;;;;;;6332870;28;20460;-64
2023/10/23 05:22:12;;;;;;;22.90;6.70;;;;;;;;;;6333817;28;20059;-65
2023/10/23 05:25:14;;;;;;;22.65;7.25;;;;;;;;;;6329994;28;20047;-66
2023/10/23 05:28:16;;;;;;;18.08;7.13;;;;;;;;;;6332776;28;20825;-64
2023/10/23 05:31:19;;;;;;;19.73;7.18;;;;;;;;;;6334424;28;20135;-65
2023/10/23 05:34:22;;;;;;;19.52;8.80;;;;;;;;;;6334390;28;20047;-65
2023/10/23 05:37:24;;;;;;;18.73;7.75;;;;;;;;;;6329413;28;20049;-65
2023/10/23 05:40:26;;;;;;;20.13;7.22;;;;;;;;;;6327932;28;20073;-65
2023/10/23 05:43:28;;;;;;;23.55;6.70;;;;;;;;;;6325719;28;20051;-66
2023/10/23 05:46:30;;;;;;;22.35;7.05;;;;;;;;;;6324470;28;20048;-65
2023/10/23 05:49:34;;;;;;;18.30;7.22;;;;;;;;;;6327764;28;20048;-66
2023/10/23 05:52:36;;;;;;;17.20;6.47;;;;;;;;;;6333209;28;20070;-65
2023/10/23 05:55:38;;;;;;;18.05;6.65;;;;;;;;;;6329153;28;20063;-66
2023/10/23 05:58:40;;;;;;;18.35;7.97;;;;;;;;;;6326006;28;20458;-65
2023/10/23 06:01:43;;;;;;;19.23;7.85;;;;;;;;;;6320024;28;20101;-64
2023/10/23 06:04:45;;;;;;;23.33;6.47;;;;;;;;;;6332813;28;20086;-64
2023/10/23 06:07:47;;;;;;;18.52;9.30;;;;;;;;;;6334310;28;20407;-64
2023/10/23 06:10:50;;;;;;;18.98;7.47;;;;;;;;;;6332810;28;20059;-64
2023/10/23 06:13:52;;;;;;;22.55;6.07;;;;;;;;;;6336736;28;20043;-64
2023/10/23 06:16:53;;;;;;;24.73;5.45;;;;;;;;;;6326348;28;20694;-65
2023/10/23 06:19:56;;;;;;;23.10;8.73;;;;;;;;;;6328697;28;20529;-65
2023/10/23 06:22:59;;;;;;;32.28;7.82;;;;;;;;;;6335059;28;20050;-65
2023/10/23 06:26:01;;;;;;;17.92;7.43;;;;;;;;;;6331259;28;20505;-65
2023/10/23 06:29:03;;;;;;;16.88;7.03;;;;;;;;;;6332866;28;20028;-65
2023/10/23 06:32:05;;;;;;;26.40;7.38;;;;;;;;;;6334806;28;20661;-63
2023/10/23 06:35:07;;;;;;;27.10;6.75;;;;;;;;;;6336607;28;20044;-65
2023/10/23 06:38:10;;;;;;;28.77;7.90;;;;;;;;;;6337546;28;20143;-65
2023/10/23 06:41:12;;;;;;;17.70;7.63;;;;;;;;;;6312645;28;20047;-64
2023/10/23 06:44:14;;;;;;;21.33;6.60;;;;;;;;;;6339282;28;20524;-65
2023/10/23 06:47:16;;;;;;;20.40;6.63;;;;;;;;;;6340349;28;20059;-65
2023/10/23 06:50:18;;;;;;;21.02;7.68;;;;;;;;;;6325471;28;20027;-65
2023/10/23 06:53:20;;;;;;;25.90;6.57;;;;;;;;;;6320350;28;20055;-66
2023/10/23 06:56:22;;;;;;;20.15;6.93;;;;;;;;;;6329569;28;20047;-66
2023/10/23 06:59:24;;;;;;;18.67;6.85;;;;;;;;;;6331435;28;20612;-65
2023/10/23 07:02:26;;;;;;;23.45;7.00;;;;;;;;;;6333874;28;20056;-67
2023/10/23 07:05:28;;;;;;;25.55;7.18;;;;;;;;;;6330600;28;20075;-65
2023/10/23 07:08:30;;;;;;;23.20;6.97;;;;;;;;;;6336273;28;20047;-67
2023/10/23 07:11:32;;;;;;;19.25;8.63;;;;;;;;;;6320286;28;20584;-66
2023/10/23 07:14:34;;;;;;;23.40;6.47;;;;;;;;;;6334883;28;20055;-65
2023/10/23 07:17:36;;;;;;;19.98;5.88;;;;;;;;;;6316123;28;20101;-66
2023/10/23 07:20:38;;;;;;;21.65;8.38;;;;;;;;;;6330024;28;20078;-66
2023/10/23 07:23:40;;;;;;;18.52;6.70;;;;;;;;;;6319191;28;20593;-66
2023/10/23 07:26:42;;;;;;;22.60;5.65;;;;;;;;;;6329044;28;20039;-65
2023/10/23 07:29:44;;;;;;;19.85;5.75;;;;;;;;;;6331474;28;20103;-66
2023/10/23 07:32:49;;;;;;;20.63;6.68;;;;;;;;;;6328508;28;20107;-66
2023/10/23 07:36:05;;;;;;;23.42;7.13;;;;;;;;;;6330467;28;20040;-65
2023/10/23 07:39:08;;;;;;;20.42;6.95;;;;;;;;;;6337902;28;20058;-66
2023/10/23 07:42:10;;;;;;;25.48;8.07;;;;;;;;;;6337921;28;20046;-65
2023/10/23 07:45:12;;;;;;;19.23;6.68;;;;;;;;;;6338559;28;20054;-67
2023/10/23 07:48:14;;;;;;;21.95;9.18;;;;;;;;;;6331725;28;20038;-67
2023/10/23 07:51:16;;;;;;;27.98;8.93;;;;;;;;;;6338648;28;20044;-65
2023/10/23 07:54:18;;;;;;;28.60;7.30;;;;;;;;;;6337985;27;20124;-65
2023/10/23 07:57:20;;;;;;;27.65;7.88;;;;;;;;;;6329753;28;20055;-65
2023/10/23 08:00:23;;;;;;;19.60;6.38;;;;;;;;;;6332338;28;20055;-64
2023/10/23 08:03:25;;;;;;;17.10;7.35;;;;;;;;;;6329995;28;20048;-67
2023/10/23 08:06:27;;;;;;;26.25;7.38;;;;;;;;;;6325419;28;20077;-66
2023/10/23 08:09:29;;;;;;;20.75;6.82;;;;;;;;;;6336378;28;20116;-65
2023/10/23 08:12:31;;;;;;;30.13;7.65;;;;;;;;;;6328310;28;20151;-65
2023/10/23 08:15:33;;;;;;;19.25;7.18;;;;;;;;;;6327527;28;20055;-65
2023/10/23 08:18:35;;;;;;;18.08;9.10;;;;;;;;;;6328681;28;20052;-64
2023/10/23 08:21:43;;;;;;;20.40;6.72;;;;;;;;;;6323847;28;20121;-65
2023/10/23 08:24:45;;;;;;;29.45;10.23;;;;;;;;;;6331290;28;21065;-64
2023/10/23 08:27:47;;;;;;;18.33;7.22;;;;;;;;;;6330403;28;20051;-64
2023/10/23 08:30:49;;;;;;;27.15;8.48;;;;;;;;;;6325554;28;20040;-64
2023/10/23 08:33:51;;;;;;;32.90;8.75;;;;;;;;;;6327764;28;20523;-65
2023/10/23 08:36:53;;;;;;;35.08;8.82;;;;;;;;;;6327543;28;20053;-64
2023/10/23 08:39:55;;;;;;;24.95;7.88;;;;;;;;;;6328527;28;20126;-64
2023/10/23 08:42:57;;;;;;;22.42;7.88;;;;;;;;;;6326026;28;20135;-64
2023/10/23 08:46:02;;;;;;;28.58;7.88;;;;;;;;;;6320887;28;20043;-64
2023/10/23 08:49:04;;;;;;;27.85;6.95;;;;;;;;;;6320295;28;20075;-65
2023/10/23 08:52:10;;;;;;;27.23;7.50;;;;;;;;;;6324802;28;20051;-64
2023/10/23 08:55:16;;;;;;;25.40;7.30;;;;;;;;;;6320269;28;20048;-64
2023/10/23 08:58:21;;;;;;;27.55;8.32;;;;;;;;;;6320324;28;20044;-64
2023/10/23 09:01:23;;;;;;;29.25;7.38;;;;;;;;;;6324754;28;20056;-66
2023/10/23 09:04:26;;;;;;;29.52;7.18;;;;;;;;;;6304325;28;20474;-65
2023/10/23 09:07:28;;;;;;;23.90;8.48;;;;;;;;;;6324983;28;20144;-66
2023/10/23 09:10:30;;;;;;;21.92;5.80;;;;;;;;;;6332965;28;20513;-64
2023/10/23 09:13:39;;;;;;;19.63;6.55;;;;;;;;;;6324473;28;20541;-64
2023/10/23 09:16:41;;;;;;;21.10;8.55;;;;;;;;;;6333576;28;20044;-63
2023/10/23 09:19:44;;;;;;;20.90;6.03;;;;;;;;;;6327383;28;20574;-65
2023/10/23 09:22:48;;;;;;;21.23;5.95;;;;;;;;;;6320264;28;20048;-65
2023/10/23 09:25:56;;;;;;;27.33;6.28;;;;;;;;;;6327866;28;20046;-64
2023/10/23 09:28:58;;;;;;;26.60;7.85;;;;;;;;;;6325794;28;20430;-64
2023/10/23 09:32:00;;;;;;;24.10;5.60;;;;;;;;;;6324345;28;20039;-64
2023/10/23 09:35:06;;;;;;;25.98;8.18;;;;;;;;;;6324004;28;20137;-64
2023/10/23 09:38:14;;;;;;;18.33;5.60;;;;;;;;;;6318029;28;20048;-65
2023/10/23 09:41:16;;;;;;;25.77;8.30;;;;;;;;;;6326072;28;20036;-65
2023/10/23 09:44:18;;;;;;;18.38;5.90;;;;;;;;;;6318623;28;20542;-65
2023/10/23 09:47:21;;;;;;;20.05;6.85;;;;;;;;;;6308403;28;20055;-65
2023/10/23 09:50:23;;;;;;;23.45;6.40;;;;;;;;;;6307684;28;20055;-65
2023/10/23 09:53:26;;;;;;;28.20;7.97;;;;;;;;;;6332221;28;20123;-65
2023/10/23 09:56:32;;;;;;;16.65;7.95;;;;;;;;;;6306716;28;20040;-65
2023/10/23 09:59:38;;;;;;;36.83;7.55;;;;;;;;;;6334820;28;20051;-65
2023/10/23 10:02:55;;;;;;;19.05;6.53;;;;;;;;;;6330097;28;20063;-65
2023/10/23 10:06:07;;;;;;;18.05;7.20;;;;;;;;;;6326747;28;20168;-65
2023/10/23 10:09:12;;;;;;;20.30;5.25;;;;;;;;;;6330825;28;20066;-65
2023/10/23 10:12:16;;;;;;;23.60;7.32;;;;;;;;;;6311144;28;20048;-65
2023/10/23 10:15:18;;;;;;;20.20;6.20;;;;;;;;;;6330280;28;20194;-65
2023/10/23 10:18:21;;;;;;;23.65;9.38;;;;;;;;;;6328996;28;20054;-65
2023/10/23 10:21:23;;;;;;;16.17;6.10;;;;;;;;;;6325648;28;20044;-64
2023/10/23 10:24:26;;;;;;;24.90;6.68;;;;;;;;;;6325278;28;20087;-65
2023/10/23 10:27:28;;;;;;;16.55;5.30;;;;;;;;;;6315303;28;20054;-65
2023/10/23 10:30:45;;;;;;;18.73;8.05;;;;;;;;;;6330479;28;20130;-64
2023/10/23 10:33:47;;;;;;;22.05;4.90;;;;;;;;;;6331037;28;20138;-65
2023/10/23 10:37:09;;;;;;;18.10;5.60;;;;;;;;;;6328213;28;20048;-65
2023/10/23 10:40:27;;;;;;;15.95;6.10;;;;;;;;;;6315048;28;20067;-65
2023/10/23 10:43:32;;;;;;;19.55;7.47;;;;;;;;;;6326801;28;20054;-65
2023/10/23 10:46:35;;;;;;;25.50;6.22;;;;;;;;;;6332467;28;20094;-65
2023/10/23 10:49:37;;;;;;;19.42;6.28;;;;;;;;;;6316051;28;20043;-65
2023/10/23 10:52:43;;;;;;;26.02;6.82;;;;;;;;;;6331411;28;20047;-65
2023/10/23 10:55:45;;;;;;;18.35;6.95;;;;;;;;;;6307974;28;20462;-65
2023/10/23 10:58:47;;;;;;;23.45;6.65;;;;;;;;;;6327532;28;20048;-65
2023/10/23 11:01:51;;;;;;;22.15;6.07;;;;;;;;;;6327460;28;20047;-66
2023/10/23 11:04:53;;;;;;;17.27;5.60;;;;;;;;;;6322219;28;20154;-65
2023/10/23 11:07:55;;;;;;;20.58;7.70;;;;;;;;;;6327611;28;20052;-66
2023/10/23 11:10:57;;;;;;;18.55;5.68;;;;;;;;;;6326064;28;20096;-65
2023/10/23 11:14:00;;;;;;;22.20;6.35;;;;;;;;;;6315410;28;20475;-65
2023/10/23 11:17:05;;;;;;;21.08;8.30;;;;;;;;;;6326076;28;20439;-65
2023/10/23 11:20:12;;;;;;;21.38;5.80;;;;;;;;;;6330376;28;20048;-66
2023/10/23 11:23:16;;;;;;;18.65;4.47;;;;;;;;;;6337162;28;20757;-65
2023/10/23 11:26:18;;;;;;;13.80;4.72;;;;;;;;;;6331362;28;20040;-64
2023/10/23 11:29:20;;;;;;;18.88;4.78;;;;;;;;;;6331260;28;20043;-67
2023/10/23 11:32:22;;;;;;;20.23;3.97;;;;;;;;;;6328364;28;20047;-66
2023/10/23 11:35:31;;;;;;;20.02;5.57;;;;;;;;;;6333159;28;20043;-66
2023/10/23 11:38:36;;;;;;;24.13;6.65;;;;;;;;;;6327240;28;20051;-65
2023/10/23 11:41:38;;;;;;;19.23;5.82;;;;;;;;;;6320701;28;20036;-66
2023/10/23 11:44:41;;;;;;;18.15;3.40;;;;;;;;;;6338676;28;20518;-66
2023/10/23 11:47:44;;;;;;;17.77;4.88;;;;;;;;;;6334903;28;20060;-66
2023/10/23 11:50:47;;;;;;;18.92;4.93;;;;;;;;;;6333020;28;20044;-66
2023/10/23 11:53:49;;;;;;;16.17;3.72;;;;;;;;;;6324387;28;20504;-65
2023/10/23 11:56:55;;;;;;;12.27;5.00;;;;;;;;;;6335569;28;20043;-66
2023/10/23 12:00:07;;;;;;;14.77;4.85;;;;;;;;;;6336206;28;20044;-66
2023/10/23 12:03:12;;;;;;;15.48;5.00;;;;;;;;;;6336047;28;20047;-66
2023/10/23 12:06:14;;;;;;;12.70;5.03;;;;;;;;;;6335532;28;20051;-65
2023/10/23 12:09:16;;;;;;;17.05;3.78;;;;;;;;;;6334666;28;20043;-66
2023/10/23 12:12:18;;;;;;;20.00;5.07;;;;;;;;;;6334784;27;20047;-65
2023/10/23 12:15:27;;;;;;;14.70;5.22;;;;;;;;;;6331641;28;20728;-65
2023/10/23 12:18:29;;;;;;;12.18;3.00;;;;;;;;;;6336800;28;20059;-65
2023/10/23 12:21:32;;;;;;;11.60;5.30;;;;;;;;;;6337954;28;20044;-66
2023/10/23 12:24:34;;;;;;;20.08;4.60;;;;;;;;;;6337808;28;20059;-66
2023/10/23 12:27:38;;;;;;;17.13;5.63;;;;;;;;;;6336394;28;20094;-66
2023/10/23 12:30:40;;;;;;;16.13;4.00;;;;;;;;;;6335589;28;20159;-65
2023/10/23 12:33:42;;;;;;;12.57;3.13;;;;;;;;;;6323958;28;20146;-66
2023/10/23 12:36:45;;;;;;;19.02;4.00;;;;;;;;;;6337757;28;20935;-66
2023/10/23 12:39:47;;;;;;;16.92;5.35;;;;;;;;;;6336524;28;20111;-66
2023/10/23 12:42:49;;;;;;;14.48;5.63;;;;;;;;;;6337572;28;20042;-66
2023/10/23 12:45:51;;;;;;;18.15;4.10;;;;;;;;;;6319252;28;20086;-65
2023/10/23 12:48:53;;;;;;;17.73;5.32;;;;;;;;;;6336944;28;20040;-66
2023/10/23 12:51:55;;;;;;;18.95;3.65;;;;;;;;;;6321618;28;20043;-66
2023/10/23 12:54:57;;;;;;;20.23;4.82;;;;;;;;;;6336711;28;20119;-65
2023/10/23 12:58:02;;;;;;;16.25;5.10;;;;;;;;;;6337351;27;20075;-66
2023/10/23 13:01:04;;;;;;;17.83;5.57;;;;;;;;;;6336495;28;20058;-64
2023/10/23 13:04:07;;;;;;;26.15;4.43;;;;;;;;;;6335366;28;20135;-65
2023/10/23 13:07:10;;;;;;;21.50;5.45;;;;;;;;;;6336892;28;20121;-65
2023/10/23 13:10:12;;;;;;;26.10;3.72;;;;;;;;;;6335555;28;20046;-66
2023/10/23 13:13:14;;;;;;;19.42;4.60;;;;;;;;;;6334707;28;20048;-66
2023/10/23 13:16:16;;;;;;;12.65;4.82;;;;;;;;;;6327512;28;20044;-65
2023/10/23 13:19:19;;;;;;;18.20;4.78;;;;;;;;;;6337330;28;20044;-65
2023/10/23 13:22:21;;;;;;;18.27;3.83;;;;;;;;;;6321312;28;20048;-65
2023/10/23 13:25:24;;;;;;;20.40;5.38;;;;;;;;;;6336020;28;20188;-65
2023/10/23 13:28:26;;;;;;;20.05;6.28;;;;;;;;;;6336785;28;20059;-64
2023/10/23 13:31:28;;;;;;;18.85;5.15;;;;;;;;;;6337577;28;20048;-63
2023/10/23 13:34:30;;;;;;;18.17;4.82;;;;;;;;;;6337069;28;20062;-64
2023/10/23 13:37:32;;;;;;;17.35;4.85;;;;;;;;;;6337607;28;20051;-65
2023/10/23 13:40:34;;;;;;;15.73;4.88;;;;;;;;;;6330792;28;20040;-65
2023/10/23 13:43:36;;;;;;;24.17;6.25;;;;;;;;;;6333441;28;20177;-65
2023/10/23 13:46:39;;;;;;;20.15;4.80;;;;;;;;;;6328455;28;20071;-65
2023/10/23 13:49:41;;;;;;;12.85;4.70;;;;;;;;;;6335131;28;20047;-65
2023/10/23 13:52:43;;;;;;;16.45;4.05;;;;;;;;;;6329798;28;20043;-65
2023/10/23 13:55:45;;;;;;;17.33;2.95;;;;;;;;;;6330015;28;20112;-64
2023/10/23 13:58:47;;;;;;;13.02;3.55;;;;;;;;;;6334401;28;20156;-65
2023/10/23 14:01:49;;;;;;;15.35;2.80;;;;;;;;;;6335509;28;20047;-65
2023/10/23 14:04:51;;;;;;;11.57;3.95;;;;;;;;;;6323071;28;20199;-65
2023/10/23 14:07:53;;;;;;;15.18;4.00;;;;;;;;;;6335303;28;20043;-65
2023/10/23 14:10:55;;;;;;;21.02;6.40;;;;;;;;;;6319052;28;20048;-65
2023/10/23 14:14:17;;;;;;;22.25;3.28;;;;;;;;;;6317517;28;20043;-65
2023/10/23 14:17:19;;;;;;;16.45;3.33;;;;;;;;;;6335917;28;20055;-65
2023/10/23 14:20:21;;;;;;;15.88;5.13;;;;;;;;;;6317457;28;20518;-65
2023/10/23 14:23:23;;;;;;;22.92;5.05;;;;;;;;;;6335220;28;20863;-65
2023/10/23 14:26:25;;;;;;;20.02;4.28;;;;;;;;;;6334917;28;20052;-65
2023/10/23 14:29:28;;;;;;;13.95;3.55;;;;;;;;;;6335230;28;20134;-65
2023/10/23 14:32:30;;;;;;;17.77;3.67;;;;;;;;;;6335157;28;20052;-65
2023/10/23 14:35:35;;;;;;;21.00;3.70;;;;;;;;;;6335255;28;20027;-65
2023/10/23 14:38:37;;;;;;;14.40;5.25;;;;;;;;;;6335340;28;20040;-64
2023/10/23 14:41:39;;;;;;;15.77;4.82;;;;;;;;;;6332518;28;20085;-65
2023/10/23 14:44:42;;;;;;;16.45;4.63;;;;;;;;;;6335662;28;21072;-66
2023/10/23 14:47:44;;;;;;;16.65;5.43;;;;;;;;;;6334039;28;20082;-65
2023/10/23 14:50:46;;;;;;;12.38;3.40;;;;;;;;;;6329495;28;20755;-65
2023/10/23 14:53:50;;;;;;;23.92;3.85;;;;;;;;;;6335237;28;20035;-65
2023/10/23 14:56:52;;;;;;;16.17;3.45;;;;;;;;;;6325793;28;20051;-65
2023/10/23 14:59:55;;;;;;;11.07;3.45;;;;;;;;;;6333441;28;20130;-65
2023/10/23 15:02:57;;;;;;;14.48;3.15;;;;;;;;;;6334895;28;20046;-65
2023/10/23 15:06:06;;;;;;;17.42;3.33;;;;;;;;;;6339601;28;20048;-65
2023/10/23 15:09:08;;;;;;;14.52;3.65;;;;;;;;;;6321822;28;20039;-65
2023/10/23 15:12:11;;;;;;;22.40;6.35;;;;;;;;;;6339283;28;20042;-65
2023/10/23 15:15:13;;;;;;;12.48;5.22;;;;;;;;;;6340397;28;20050;-65
2023/10/23 15:18:15;;;;;;;8.90;2.80;;;;;;;;;;6339972;28;20039;-65
2023/10/23 15:21:17;;;;;;;18.25;6.13;;;;;;;;;;6340193;28;20039;-65
2023/10/23 15:24:19;;;;;;;13.65;4.72;;;;;;;;;;6338927;28;20042;-64
2023/10/23 15:27:21;;;;;;;20.52;4.82;;;;;;;;;;6339690;28;20561;-65
2023/10/23 15:30:23;;;;;;;18.27;3.35;;;;;;;;;;6340861;28;20106;-66
2023/10/23 15:33:26;;;;;;;11.80;3.28;;;;;;;;;;6325558;28;20063;-65
2023/10/23 15:36:29;;;;;;;14.93;4.50;;;;;;;;;;6339981;28;20040;-65
2023/10/23 15:39:31;;;;;;;16.95;3.65;;;;;;;;;;6335141;28;20150;-65
2023/10/23 15:42:34;;;;;;;11.95;3.35;;;;;;;;;;6339565;27;20146;-64
2023/10/23 15:45:37;;;;;;;12.82;4.38;;;;;;;;;;6338960;28;20701;-65
2023/10/23 15:48:40;;;;;;;14.23;2.75;;;;;;;;;;6339804;28;20047;-64
2023/10/23 15:51:41;;;;;;;14.10;3.00;;;;;;;;;;6339178;28;20053;-64
2023/10/23 15:54:43;;;;;;;14.45;3.38;;;;;;;;;;6338759;28;20046;-65
2023/10/23 15:57:47;;;;;;;12.48;4.72;;;;;;;;;;6339353;28;20055;-64
2023/10/23 16:00:50;;;;;;;11.00;2.95;;;;;;;;;;6323380;28;20044;-64
2023/10/23 16:03:52;;;;;;;15.38;6.18;;;;;;;;;;6337578;28;20039;-64
2023/10/23 16:06:54;;;;;;;16.35;3.45;;;;;;;;;;6333288;28;20070;-65
2023/10/23 16:09:56;;;;;;;19.08;3.67;;;;;;;;;;6328766;28;20047;-63
2023/10/23 16:12:58;;;;;;;14.48;3.15;;;;;;;;;;6334988;28;20118;-64
2023/10/23 16:16:00;;;;;;;12.93;5.72;;;;;;;;;;6335224;28;20835;-64
2023/10/23 16:19:04;;;;;;;14.55;4.68;;;;;;;;;;6337436;28;20078;-64
2023/10/23 16:22:06;;;;;;;20.13;5.63;;;;;;;;;;6337110;28;20088;-64
2023/10/23 16:25:09;;;;;;;15.68;3.67;;;;;;;;;;6334055;28;20039;-64
2023/10/23 16:28:12;;;;;;;17.27;3.40;;;;;;;;;;6334751;28;20039;-64
2023/10/23 16:31:15;;;;;;;12.32;6.07;;;;;;;;;;6334306;28;20051;-65
2023/10/23 16:34:17;;;;;;;12.65;3.92;;;;;;;;;;6336083;28;20052;-64
2023/10/23 16:37:19;;;;;;;17.05;4.95;;;;;;;;;;6334198;28;20051;-65
2023/10/23 16:40:21;;;;;;;15.15;3.38;;;;;;;;;;6337388;28;20055;-64
2023/10/23 16:43:23;;;;;;;16.73;3.72;;;;;;;;;;6336672;28;20124;-64
2023/10/23 16:46:26;;;;;;;13.63;3.75;;;;;;;;;;6336893;28;20055;-64
2023/10/23 16:49:32;;;;;;;27.58;8.40;;;;;;;;;;6334250;28;20055;-64
2023/10/23 16:52:35;;;;;;;16.50;4.78;;;;;;;;;;6329392;28;20044;-63
2023/10/23 16:55:37;;;;;;;14.30;4.18;;;;;;;;;;6330327;28;20071;-64
2023/10/23 16:58:39;;;;;;;16.85;3.80;;;;;;;;;;6331845;28;20048;-64
2023/10/23 17:01:42;;;;;;;25.20;3.88;;;;;;;;;;6333979;28;20056;-64
2023/10/23 17:04:45;;;;;;;18.23;4.32;;;;;;;;;;6341411;27;20057;-65
2023/10/23 17:07:47;;;;;;;20.98;4.53;;;;;;;;;;6335882;28;20122;-65
2023/10/23 17:10:48;;;;;;;18.13;5.22;;;;;;;;;;6337110;28;20044;-65
2023/10/23 17:13:52;;;;;;;20.80;7.05;;;;;;;;;;6330056;28;20718;-66
2023/10/23 17:16:56;;;;;;;21.63;7.43;;;;;;;;;;6330649;28;20052;-66
2023/10/23 17:19:58;;;;;;;20.60;6.18;;;;;;;;;;6322178;28;20050;-65
2023/10/23 17:23:00;;;;;;;13.75;3.22;;;;;;;;;;6324252;27;20050;-65
2023/10/23 17:26:02;;;;;;;23.55;6.82;;;;;;;;;;6321849;28;20434;-65
2023/10/23 17:29:04;;;;;;;18.30;3.72;;;;;;;;;;6330924;28;20180;-64
2023/10/23 17:32:09;;;;;;;15.27;4.32;;;;;;;;;;6316648;28;20450;-66
2023/10/23 17:35:11;;;;;;;15.73;6.07;;;;;;;;;;6334544;28;20082;-66
2023/10/23 17:38:13;;;;;;;22.63;8.88;;;;;;;;;;6336605;28;20528;-66
2023/10/23 17:41:16;;;;;;;21.10;7.97;;;;;;;;;;6318406;28;20055;-66
2023/10/23 17:44:18;;;;;;;22.13;6.05;;;;;;;;;;6322905;28;20760;-65
2023/10/23 17:47:26;;;;;;;18.45;6.68;;;;;;;;;;6335896;28;20640;-65
2023/10/23 17:50:35;;;;;;;12.43;4.03;;;;;;;;;;6334842;28;20071;-67
2023/10/23 17:53:37;;;;;;;16.15;5.80;;;;;;;;;;6333348;28;20465;-65
2023/10/23 17:56:54;;;;;;;24.58;6.68;;;;;;;;;;6333893;28;20105;-65
2023/10/23 17:59:57;;;;;;;18.80;5.05;;;;;;;;;;6334638;28;20509;-66
2023/10/23 18:02:59;;;;;;;17.23;6.05;;;;;;;;;;6334734;28;20036;-66